Jansen, Canada
Current Conditions -  °F | °C
As of 10:00 PM on Saturday 25 Oct 2014 (Local Time) from CYXE Reporting Station
Scattered Clouds Scattered Clouds  
Wind Chill: 34°   Ceiling: Unl
Heat Index: 41°   Visibility: 15mi
Dew Point: 27°   Wind: 13mph
Humidity: 57%   Direction: 100°E
Pressure: 29.79"   Gusts: NA
Location:  51.78°N, 104.72°W
Report Text: CYXE 260400Z 10011KT 15SM SCT140 05/M03 A2979 RMK AC4 SLP110
Loading
Personal Weather Stations






























Interactive Weather Map
Tropical Storm Tracking
New forecast layout! Learn more

10-Day Weather Forecast

Advertisements
Track Severe Weather on mobile